createdAt,value
2023-05-10T00:00:26.848Z,86.57
2023-05-10T00:01:26.873Z,86.51
2023-05-10T00:02:26.884Z,86.57
2023-05-10T00:03:26.917Z,86.47
2023-05-10T00:04:26.796Z,86.47
2023-05-10T00:05:26.795Z,86.71
2023-05-10T00:06:26.788Z,86.98
2023-05-10T00:07:26.825Z,87.02
2023-05-10T00:08:26.768Z,86.37
2023-05-10T00:09:26.773Z,86.61
2023-05-10T00:10:26.762Z,86.98
2023-05-10T00:11:26.752Z,86.77
2023-05-10T00:12:26.717Z,87.42
2023-05-10T00:13:26.823Z,87.02
2023-05-10T00:14:26.709Z,87.22
2023-05-10T00:15:26.714Z,86.87
2023-05-10T00:16:26.717Z,87.12
2023-05-10T00:17:26.696Z,87.22
2023-05-10T00:18:26.649Z,87.62
2023-05-10T00:19:26.655Z,87.62
2023-05-10T00:20:26.631Z,88.02
2023-05-10T00:21:26.645Z,87.82
2023-05-10T00:22:26.628Z,87.62
2023-05-10T00:23:26.632Z,88.23
2023-05-10T00:24:26.592Z,88.13
2023-05-10T00:25:26.596Z,88.13
2023-05-10T00:26:26.657Z,88.43
2023-05-10T00:27:26.562Z,88.23
2023-05-10T00:28:26.566Z,88.74
2023-05-10T00:29:26.595Z,88.64
2023-05-10T00:30:26.551Z,88.43
2023-05-10T00:31:26.577Z,88.39
2023-05-10T00:32:26.639Z,88.74
2023-05-10T00:33:26.512Z,88.74
2023-05-10T00:34:26.493Z,88.64
2023-05-10T00:35:26.530Z,88.74
2023-05-10T00:36:26.503Z,88.94
2023-05-10T00:37:26.465Z,89.04
2023-05-10T00:38:26.454Z,88.84
2023-05-10T00:39:26.483Z,88.70
2023-05-10T00:40:26.435Z,88.79
2023-05-10T00:41:26.450Z,88.74
2023-05-10T00:42:26.410Z,88.53
2023-05-10T00:43:26.417Z,88.64
2023-05-10T00:44:26.416Z,88.39
2023-05-10T00:45:26.415Z,88.74
2023-05-10T00:46:26.425Z,88.74
2023-05-10T00:47:26.378Z,88.74
2023-05-10T00:48:26.420Z,89.14
2023-05-10T00:49:26.345Z,89.04
2023-05-10T00:50:26.334Z,89.34
2023-05-10T00:51:26.341Z,89.54
2023-05-10T00:52:26.327Z,89.75
2023-05-10T00:53:26.381Z,89.39
2023-05-10T00:54:26.342Z,89.59
2023-05-10T00:55:26.293Z,89.69
2023-05-10T00:56:27.282Z,89.94
2023-05-10T00:57:26.257Z,90.20
2023-05-10T00:58:26.275Z,90.30
2023-05-10T00:59:26.302Z,89.69
2023-05-10T01:00:26.236Z,90.54
2023-05-10T01:01:26.289Z,90.34
2023-05-10T01:02:26.367Z,91.05
2023-05-10T01:03:26.289Z,90.95
2023-05-10T01:04:26.301Z,91.35
2023-05-10T01:05:26.218Z,91.15
2023-05-10T01:06:26.192Z,90.64
2023-05-10T01:07:26.175Z,90.69
2023-05-10T01:08:26.195Z,91.19
2023-05-10T01:09:26.176Z,91.19
2023-05-10T01:10:26.137Z,91.09
2023-05-10T01:11:26.133Z,90.99
2023-05-10T01:12:26.176Z,91.30
2023-05-10T01:13:26.333Z,90.89
2023-05-10T01:14:26.107Z,91.09
2023-05-10T01:15:26.093Z,91.30
2023-05-10T01:16:26.133Z,91.80
2023-05-10T01:17:26.141Z,91.60
2023-05-10T01:18:26.081Z,91.90
2023-05-10T01:19:26.048Z,91.94
2023-05-10T01:20:26.055Z,92.21
2023-05-10T01:21:26.033Z,92.10
2023-05-10T01:22:26.052Z,91.90
2023-05-10T01:23:26.007Z,92.41
2023-05-10T01:24:25.989Z,92.76
2023-05-10T01:25:25.981Z,92.76
2023-05-10T01:26:25.984Z,92.76
2023-05-10T01:27:26.034Z,93.02
2023-05-10T01:28:25.962Z,92.96
2023-05-10T01:29:25.969Z,92.96
2023-05-10T01:30:26.114Z,92.96
2023-05-10T01:31:26.000Z,93.06
2023-05-10T01:32:26.019Z,92.96
2023-05-10T01:33:25.901Z,92.96
2023-05-10T01:34:25.894Z,93.16
2023-05-10T01:35:25.908Z,92.96
2023-05-10T01:36:25.932Z,93.30
2023-05-10T01:37:25.856Z,92.96
2023-05-10T01:38:25.856Z,93.10
2023-05-10T01:39:25.855Z,92.90
2023-05-10T01:40:25.831Z,93.21
2023-05-10T01:41:25.828Z,92.90
2023-05-10T01:42:25.811Z,93.16
2023-05-10T01:43:25.798Z,92.90
2023-05-10T01:44:25.815Z,92.96
2023-05-10T01:45:25.789Z,92.80
2023-05-10T01:46:25.807Z,93.00
2023-05-10T01:47:25.810Z,92.29
2023-05-10T01:48:25.746Z,92.76
2023-05-10T01:49:26.750Z,92.86
2023-05-10T01:50:25.756Z,93.00
2023-05-10T01:51:25.740Z,92.35
2023-05-10T01:52:25.717Z,93.00
2023-05-10T01:53:25.707Z,93.00
2023-05-10T01:54:25.693Z,93.21
2023-05-10T01:55:25.709Z,92.70
2023-05-10T01:56:25.669Z,92.70
2023-05-10T01:57:25.659Z,93.00
2023-05-10T01:58:25.650Z,92.80
2023-05-10T01:59:25.652Z,93.30
2023-05-10T02:00:25.668Z,92.94
2023-05-10T02:01:25.620Z,93.41
2023-05-10T02:02:25.654Z,93.41
2023-05-10T02:03:25.724Z,93.55
2023-05-10T02:04:25.638Z,93.55
2023-05-10T02:05:25.623Z,93.55
2023-05-10T02:06:25.573Z,93.61
2023-05-10T02:07:25.606Z,93.45
2023-05-10T02:08:25.556Z,93.35
2023-05-10T02:09:25.574Z,93.81
2023-05-10T02:10:25.542Z,93.91
2023-05-10T02:11:25.530Z,93.86
2023-05-10T02:12:25.534Z,93.61
2023-05-10T02:13:25.679Z,93.25
2023-05-10T02:14:25.533Z,93.10
2023-05-10T02:15:25.498Z,93.21
2023-05-10T02:16:25.507Z,93.81
2023-05-10T02:17:25.518Z,93.91
2023-05-10T02:18:25.478Z,93.91
2023-05-10T02:19:25.448Z,94.06
2023-05-10T02:20:25.447Z,94.02
2023-05-10T02:21:25.423Z,94.17
2023-05-10T02:22:25.408Z,94.26
2023-05-10T02:23:25.436Z,94.32
2023-05-10T02:24:25.392Z,94.32
2023-05-10T02:25:25.410Z,94.42
2023-05-10T02:26:25.385Z,94.42
2023-05-10T02:27:25.396Z,94.46
2023-05-10T02:28:25.373Z,94.67
2023-05-10T02:29:25.383Z,94.46
2023-05-10T02:30:25.399Z,94.73
2023-05-10T02:31:25.388Z,95.18
2023-05-10T02:32:25.372Z,94.83
2023-05-10T02:33:25.369Z,95.07
2023-05-10T02:34:25.286Z,94.32
2023-05-10T02:35:25.292Z,94.12
2023-05-10T02:36:25.278Z,94.26
2023-05-10T02:37:25.289Z,94.87
2023-05-10T02:38:25.270Z,95.18
2023-05-10T02:39:25.245Z,95.03
2023-05-10T02:40:26.857Z,95.13
2023-05-10T02:41:25.249Z,95.13
2023-05-10T02:42:25.247Z,95.28
2023-05-10T02:43:25.194Z,95.03
2023-05-10T02:44:25.193Z,95.18
2023-05-10T02:45:25.194Z,95.23
2023-05-10T02:46:25.262Z,95.28
2023-05-10T02:47:25.182Z,95.13
2023-05-10T02:48:25.155Z,95.48
2023-05-10T02:49:25.171Z,95.28
2023-05-10T02:50:25.125Z,95.28
2023-05-10T02:51:25.138Z,95.48
2023-05-10T02:52:25.114Z,94.98
2023-05-10T02:53:25.103Z,95.48
2023-05-10T02:54:25.101Z,95.38
2023-05-10T02:55:25.111Z,95.38
2023-05-10T02:56:25.081Z,95.48
2023-05-10T02:57:25.065Z,95.68
2023-05-10T02:58:25.073Z,95.63
2023-05-10T02:59:25.114Z,95.79
2023-05-10T03:00:25.050Z,96.09
2023-05-10T03:01:25.083Z,95.83
2023-05-10T03:02:25.044Z,95.63
2023-05-10T03:03:25.014Z,96.14
2023-05-10T03:04:25.014Z,95.98
2023-05-10T03:05:25.034Z,95.37
2023-05-10T03:06:24.967Z,95.06
2023-05-10T03:07:24.982Z,94.56
2023-05-10T03:08:24.956Z,93.48
2023-05-10T03:09:24.954Z,93.13
2023-05-10T03:10:24.935Z,93.64
2023-05-10T03:11:24.929Z,94.05
2023-05-10T03:12:24.919Z,93.95
2023-05-10T03:13:24.924Z,93.64
2023-05-10T03:14:24.929Z,93.84
2023-05-10T03:15:24.884Z,93.95
2023-05-10T03:16:24.907Z,93.74
2023-05-10T03:17:24.885Z,93.74
2023-05-10T03:18:24.871Z,93.44
2023-05-10T03:19:24.847Z,93.90
2023-05-10T03:20:24.877Z,93.74
2023-05-10T03:21:24.829Z,94.05
2023-05-10T03:22:24.809Z,93.95
2023-05-10T03:23:24.830Z,94.05
2023-05-10T03:24:24.818Z,94.05
2023-05-10T03:25:24.786Z,93.64
2023-05-10T03:26:24.773Z,94.15
2023-05-10T03:27:24.762Z,94.20
2023-05-10T03:28:24.775Z,93.79
2023-05-10T03:29:24.758Z,94.05
2023-05-10T03:30:24.740Z,94.09
2023-05-10T03:31:24.803Z,94.29
2023-05-10T03:32:24.758Z,94.20
2023-05-10T03:33:24.711Z,94.35
2023-05-10T03:34:24.722Z,94.15
2023-05-10T03:35:24.689Z,94.56
2023-05-10T03:36:24.665Z,94.66
2023-05-10T03:37:24.667Z,93.95
2023-05-10T03:38:58.519Z,94.20
2023-05-10T03:39:24.688Z,94.35
2023-05-10T03:40:24.650Z,93.95
2023-05-10T03:41:24.636Z,94.05
2023-05-10T03:42:24.647Z,94.05
2023-05-10T03:43:24.605Z,93.90
2023-05-10T03:44:24.589Z,94.05
2023-05-10T03:45:25.586Z,93.90
2023-05-10T03:46:24.643Z,94.00
2023-05-10T03:47:24.576Z,94.10
2023-05-10T03:48:24.570Z,93.90
2023-05-10T03:49:24.538Z,94.35
2023-05-10T03:50:24.541Z,94.10
2023-05-10T03:51:24.556Z,94.31
2023-05-10T03:52:24.524Z,94.25
2023-05-10T03:53:24.508Z,94.56
2023-05-10T03:54:24.505Z,94.05
2023-05-10T03:55:24.486Z,94.15
2023-05-10T03:56:24.484Z,93.90
2023-05-10T03:57:24.476Z,94.00
2023-05-10T03:58:24.450Z,94.00
2023-05-10T03:59:24.478Z,94.15
2023-05-10T04:00:24.475Z,94.10
2023-05-10T04:01:24.444Z,94.05
2023-05-10T04:02:24.479Z,93.84
2023-05-10T04:03:24.449Z,93.60
2023-05-10T04:04:24.399Z,93.95
2023-05-10T04:05:24.417Z,94.25
2023-05-10T04:06:24.394Z,94.45
2023-05-10T04:07:24.369Z,94.35
2023-05-10T04:08:24.359Z,94.10
2023-05-10T04:09:24.403Z,94.31
2023-05-10T04:10:24.366Z,94.35
2023-05-10T04:11:24.324Z,94.41
2023-05-10T04:12:24.352Z,94.21
2023-05-10T04:13:24.353Z,94.41
2023-05-10T04:14:24.315Z,94.21
2023-05-10T04:15:24.305Z,94.51
2023-05-10T04:16:24.305Z,94.21
2023-05-10T04:17:24.326Z,94.10
2023-05-10T04:18:24.262Z,94.21
2023-05-10T04:19:24.274Z,94.31
2023-05-10T04:20:24.267Z,94.10
2023-05-10T04:21:24.230Z,94.21
2023-05-10T04:22:24.222Z,94.31
2023-05-10T04:23:24.202Z,94.37
2023-05-10T04:24:24.209Z,94.06
2023-05-10T04:25:24.190Z,94.31
2023-05-10T04:26:24.176Z,94.26
2023-05-10T04:27:24.162Z,94.26
2023-05-10T04:28:24.278Z,93.90
2023-05-10T04:29:24.184Z,94.10
2023-05-10T04:30:24.143Z,94.00
2023-05-10T04:31:24.140Z,93.60
2023-05-10T04:32:24.152Z,93.84
2023-05-10T04:33:24.143Z,93.70
2023-05-10T04:34:24.100Z,93.70
2023-05-10T04:35:24.097Z,93.80
2023-05-10T04:36:24.079Z,93.49
2023-05-10T04:37:24.079Z,93.95
2023-05-10T04:38:24.083Z,93.95
2023-05-10T04:39:24.070Z,93.49
2023-05-10T04:40:24.063Z,92.93
2023-05-10T04:41:24.035Z,92.36
2023-05-10T04:42:24.044Z,91.25
2023-05-10T04:43:24.031Z,90.94
2023-05-10T04:44:24.015Z,90.74
2023-05-10T04:45:24.004Z,90.13
2023-05-10T04:46:24.020Z,89.52
2023-05-10T04:47:24.015Z,90.03
2023-05-10T04:48:23.971Z,89.97
2023-05-10T04:49:23.961Z,89.66
2023-05-10T04:50:23.981Z,89.72
2023-05-10T04:51:23.934Z,90.03
2023-05-10T04:52:23.943Z,89.83
2023-05-10T04:53:23.913Z,89.52
2023-05-10T04:54:23.906Z,89.66
2023-05-10T04:55:23.922Z,89.76
2023-05-10T04:56:23.921Z,90.07
2023-05-10T04:57:23.885Z,89.56
2023-05-10T04:58:23.864Z,89.76
2023-05-10T04:59:23.857Z,90.27
2023-05-10T05:00:23.858Z,89.87
2023-05-10T05:01:23.892Z,90.07
2023-05-10T05:02:23.866Z,89.56
2023-05-10T05:03:23.883Z,89.97
2023-05-10T05:04:23.804Z,90.33
2023-05-10T05:05:23.822Z,90.23
2023-05-10T05:06:23.805Z,91.25
2023-05-10T05:07:23.781Z,91.45
2023-05-10T05:08:23.764Z,91.30
2023-05-10T05:09:23.751Z,92.02
2023-05-10T05:10:23.777Z,92.57
2023-05-10T05:11:23.760Z,93.24
2023-05-10T05:12:23.723Z,93.07
2023-05-10T05:13:23.850Z,93.18
2023-05-10T05:14:23.718Z,92.87
2023-05-10T05:15:23.709Z,93.18
2023-05-10T05:16:23.709Z,93.59
2023-05-10T05:17:23.676Z,93.48
2023-05-10T05:18:23.661Z,93.38
2023-05-10T05:19:23.824Z,93.18
2023-05-10T05:20:23.675Z,93.73
2023-05-10T05:21:23.653Z,93.83
2023-05-10T05:22:23.639Z,93.63
2023-05-10T05:23:23.628Z,93.68
2023-05-10T05:24:23.633Z,93.73
2023-05-10T05:25:23.598Z,93.73
2023-05-10T05:26:23.666Z,93.83
2023-05-10T05:27:23.595Z,93.52
2023-05-10T05:28:23.566Z,94.04
2023-05-10T05:29:23.571Z,93.83
2023-05-10T05:30:23.544Z,93.93
2023-05-10T05:31:23.554Z,93.83
2023-05-10T05:32:23.533Z,93.93
2023-05-10T05:33:23.543Z,94.64
2023-05-10T05:34:23.540Z,94.54
2023-05-10T05:35:23.502Z,94.59
2023-05-10T05:36:23.492Z,94.48
2023-05-10T05:37:23.495Z,94.95
2023-05-10T05:38:23.495Z,94.28
2023-05-10T05:39:23.540Z,95.20
2023-05-10T05:40:23.449Z,95.40
2023-05-10T05:41:23.495Z,95.46
2023-05-10T05:42:23.437Z,95.46
2023-05-10T05:43:23.518Z,95.46
2023-05-10T05:44:23.458Z,95.40
2023-05-10T05:45:23.416Z,95.36
2023-05-10T05:46:23.423Z,95.30
2023-05-10T05:47:23.416Z,95.30
2023-05-10T05:48:23.387Z,95.46
2023-05-10T05:49:23.355Z,95.56
2023-05-10T05:50:23.370Z,95.81
2023-05-10T05:51:23.330Z,95.46
2023-05-10T05:52:23.388Z,95.40
2023-05-10T05:53:23.374Z,95.46
2023-05-10T05:54:23.286Z,95.56
2023-05-10T05:55:23.289Z,95.46
2023-05-10T05:56:23.280Z,95.66
2023-05-10T05:57:23.295Z,95.56
2023-05-10T05:58:23.259Z,95.66
2023-05-10T05:59:23.269Z,95.86
2023-05-10T06:00:23.243Z,95.76
2023-05-10T06:01:23.227Z,95.46
2023-05-10T06:02:23.294Z,95.46
2023-05-10T06:03:23.256Z,95.66
2023-05-10T06:04:23.375Z,95.66
2023-05-10T06:05:23.264Z,95.46
2023-05-10T06:06:23.239Z,95.15
2023-05-10T06:07:23.223Z,95.21
2023-05-10T06:08:23.152Z,94.74
2023-05-10T06:09:23.147Z,94.74
2023-05-10T06:10:23.140Z,94.90
2023-05-10T06:11:23.146Z,94.50
2023-05-10T06:12:23.113Z,94.54
2023-05-10T06:13:23.135Z,94.54
2023-05-10T06:14:23.092Z,94.64
2023-05-10T06:15:23.109Z,94.04
2023-05-10T06:16:23.130Z,94.24
2023-05-10T06:17:23.065Z,94.24
2023-05-10T06:18:23.070Z,94.09
2023-05-10T06:19:23.044Z,94.13
2023-05-10T06:20:23.063Z,93.99
2023-05-10T06:21:23.041Z,93.89
2023-05-10T06:22:23.013Z,93.99
2023-05-10T06:23:23.009Z,93.68
2023-05-10T06:24:22.995Z,93.89
2023-05-10T06:25:23.099Z,93.59
2023-05-10T06:26:22.982Z,93.59
2023-05-10T06:27:22.959Z,93.68
2023-05-10T06:28:22.955Z,93.68
2023-05-10T06:29:22.950Z,93.68
2023-05-10T06:30:22.958Z,93.68
2023-05-10T06:31:22.953Z,93.38
2023-05-10T06:32:22.924Z,93.59
2023-05-10T06:33:22.899Z,93.59
2023-05-10T06:34:22.904Z,93.28
2023-05-10T06:35:22.903Z,93.38
2023-05-10T06:36:22.862Z,93.79
2023-05-10T06:37:22.879Z,93.59
2023-05-10T06:38:22.860Z,93.54
2023-05-10T06:39:22.868Z,93.54
2023-05-10T06:40:22.833Z,93.54
2023-05-10T06:41:24.588Z,93.54
2023-05-10T06:42:22.808Z,93.54
2023-05-10T06:43:22.847Z,93.64
2023-05-10T06:44:22.809Z,93.64
2023-05-10T06:45:22.781Z,93.09
2023-05-10T06:46:22.762Z,92.89
2023-05-10T06:47:22.766Z,92.89
2023-05-10T06:48:22.821Z,92.89
2023-05-10T06:49:22.818Z,93.09
2023-05-10T06:50:22.735Z,93.19
2023-05-10T06:51:22.778Z,93.15
2023-05-10T06:52:22.725Z,93.15
2023-05-10T06:53:22.719Z,92.24
2023-05-10T06:54:22.714Z,92.24
2023-05-10T06:55:22.681Z,91.73
2023-05-10T06:56:22.747Z,91.68
2023-05-10T06:57:31.443Z,91.28
2023-05-10T06:58:24.658Z,91.22
2023-05-10T06:59:22.691Z,90.92
2023-05-10T07:00:22.669Z,91.02
2023-05-10T07:01:22.828Z,91.32
2023-05-10T07:02:22.771Z,91.63
2023-05-10T07:03:22.691Z,90.77
2023-05-10T07:04:22.612Z,90.06
2023-05-10T07:05:22.612Z,89.65
2023-05-10T07:06:33.043Z,89.39
2023-05-10T07:07:24.559Z,89.25
2023-05-10T07:08:22.552Z,89.45
2023-05-10T07:09:22.541Z,89.76
2023-05-10T07:10:22.522Z,89.45
2023-05-10T07:11:22.511Z,89.55
2023-05-10T07:12:22.538Z,89.86
2023-05-10T07:13:22.610Z,90.02
2023-05-10T07:14:22.484Z,90.32
2023-05-10T07:15:22.486Z,89.96
2023-05-10T07:16:22.510Z,89.65
2023-05-10T07:17:22.494Z,89.11
2023-05-10T07:18:22.512Z,88.80
2023-05-10T07:19:22.442Z,88.44
2023-05-10T07:20:22.430Z,89.03
2023-05-10T07:21:22.446Z,88.87
2023-05-10T07:22:22.418Z,88.52
2023-05-10T07:23:22.427Z,88.62
2023-05-10T07:24:22.384Z,88.76
2023-05-10T07:25:22.370Z,88.62
2023-05-10T07:26:22.371Z,87.24
2023-05-10T07:27:22.417Z,87.95
2023-05-10T07:28:22.459Z,88.56
2023-05-10T07:29:22.348Z,88.06
2023-05-10T07:30:22.358Z,88.60
2023-05-10T07:31:22.318Z,89.11
2023-05-10T07:32:22.416Z,89.13
2023-05-10T07:33:22.353Z,88.62
2023-05-10T07:34:22.292Z,89.17
2023-05-10T07:35:22.281Z,90.05
2023-05-10T07:36:22.299Z,89.37
2023-05-10T07:37:22.308Z,88.87
2023-05-10T07:38:22.281Z,88.67
2023-05-10T07:39:27.772Z,88.46
2023-05-10T07:40:24.257Z,86.47
2023-05-10T07:41:22.238Z,87.18
2023-05-10T07:42:22.198Z,86.94
2023-05-10T07:43:22.209Z,87.51
2023-05-10T07:44:22.240Z,87.81
2023-05-10T07:45:22.192Z,87.61
2023-05-10T07:46:22.363Z,88.21
2023-05-10T07:47:22.176Z,87.40
2023-05-10T07:48:22.175Z,87.30
2023-05-10T07:49:22.159Z,86.96
2023-05-10T07:50:22.148Z,86.86
2023-05-10T07:51:22.155Z,85.44
2023-05-10T07:52:22.883Z,85.24
2023-05-10T07:53:23.095Z,85.17
2023-05-10T07:54:22.104Z,84.97
2023-05-10T07:55:22.065Z,85.33
2023-05-10T07:56:22.053Z,85.24
2023-05-10T07:57:22.057Z,84.89
2023-05-10T07:58:22.051Z,84.99
2023-05-10T07:59:22.066Z,86.31
2023-05-10T08:00:22.089Z,84.63
2023-05-10T08:01:22.022Z,84.69
2023-05-10T08:02:22.043Z,84.75
2023-05-10T08:03:22.092Z,84.64
2023-05-10T08:04:22.105Z,83.73
2023-05-10T08:05:21.976Z,82.82
2023-05-10T08:06:21.957Z,82.31
2023-05-10T08:07:21.953Z,81.91
2023-05-10T08:08:21.967Z,82.05
2023-05-10T08:09:21.918Z,82.70
2023-05-10T08:10:22.038Z,82.50
2023-05-10T08:11:21.950Z,83.51
2023-05-10T08:12:21.922Z,84.52
2023-05-10T08:13:21.916Z,84.14
2023-05-10T08:14:21.885Z,82.21
2023-05-10T08:15:21.865Z,82.52
2023-05-10T08:16:21.873Z,81.95
2023-05-10T08:17:22.828Z,81.13
2023-05-10T08:18:22.253Z,80.43
2023-05-10T08:19:22.862Z,80.79
2023-05-10T08:20:21.971Z,81.60
2023-05-10T08:21:21.816Z,81.50
2023-05-10T08:22:21.821Z,81.40
2023-05-10T08:23:21.795Z,82.72
2023-05-10T08:24:21.830Z,81.97
2023-05-10T08:25:21.764Z,80.39
2023-05-10T08:26:21.769Z,81.50
2023-05-10T08:27:21.778Z,78.77
2023-05-10T08:28:21.745Z,79.98
2023-05-10T08:29:21.757Z,80.90
2023-05-10T08:30:21.753Z,79.68
2023-05-10T08:31:21.770Z,81.10
2023-05-10T08:32:21.712Z,80.65
2023-05-10T08:33:21.688Z,80.05
2023-05-10T08:34:21.821Z,78.36
2023-05-10T08:35:21.691Z,80.39
2023-05-10T08:36:21.686Z,80.76
2023-05-10T08:37:21.694Z,81.52
2023-05-10T08:38:21.629Z,80.84
2023-05-10T08:39:29.686Z,79.53
2023-05-10T08:40:23.623Z,80.64
2023-05-10T08:41:21.620Z,77.14
2023-05-10T08:42:21.611Z,79.10
2023-05-10T08:43:21.582Z,78.19
2023-05-10T08:44:21.606Z,79.87
2023-05-10T08:45:21.577Z,75.45
2023-05-10T08:46:21.629Z,77.28
2023-05-10T08:47:21.546Z,78.28
2023-05-10T08:48:21.544Z,77.84
2023-05-10T08:49:21.537Z,76.70
2023-05-10T08:50:21.561Z,76.90
2023-05-10T08:51:21.520Z,77.68
2023-05-10T08:52:21.508Z,76.29
2023-05-10T08:53:21.499Z,77.92
2023-05-10T08:54:21.484Z,79.44
2023-05-10T08:55:21.519Z,76.90
2023-05-10T08:56:22.459Z,77.98
2023-05-10T08:57:21.469Z,76.93
2023-05-10T08:58:21.455Z,77.50
2023-05-10T08:59:21.456Z,76.50
2023-05-10T09:00:21.445Z,76.23
2023-05-10T09:01:21.480Z,76.93
2023-05-10T09:02:21.399Z,78.31
2023-05-10T09:03:21.377Z,74.91
2023-05-10T09:04:21.471Z,78.96
2023-05-10T09:05:21.417Z,76.93
2023-05-10T09:06:21.379Z,77.84
2023-05-10T09:07:21.362Z,76.16
2023-05-10T09:08:21.381Z,77.37
2023-05-10T09:09:21.375Z,76.46
2023-05-10T09:10:21.317Z,77.48
2023-05-10T09:11:21.319Z,77.24
2023-05-10T09:12:21.349Z,77.84
2023-05-10T09:13:21.299Z,76.50
2023-05-10T09:14:21.303Z,74.77
2023-05-10T09:15:21.282Z,76.26
2023-05-10T09:16:22.431Z,75.07
2023-05-10T09:17:22.318Z,76.82
2023-05-10T09:18:21.365Z,75.14
2023-05-10T09:19:21.275Z,75.34
2023-05-10T09:20:21.263Z,72.95
2023-05-10T09:21:21.236Z,74.63
2023-05-10T09:22:21.193Z,74.03
2023-05-10T09:23:21.208Z,73.93
2023-05-10T09:24:21.180Z,75.04
2023-05-10T09:25:21.162Z,74.94
2023-05-10T09:26:21.167Z,73.72
2023-05-10T09:27:21.186Z,75.01
2023-05-10T09:28:21.158Z,75.21
2023-05-10T09:29:21.130Z,73.15
2023-05-10T09:30:21.142Z,72.44
2023-05-10T09:31:21.210Z,71.77
2023-05-10T09:32:21.102Z,71.57
2023-05-10T09:33:21.095Z,72.38
2023-05-10T09:34:21.082Z,70.83
2023-05-10T09:35:21.194Z,69.51
2023-05-10T09:36:21.080Z,71.30
2023-05-10T09:37:21.103Z,70.49
2023-05-10T09:38:21.052Z,71.13
2023-05-10T09:39:46.958Z,74.23
2023-05-10T09:40:21.025Z,73.08
2023-05-10T09:41:21.014Z,72.34
2023-05-10T09:42:21.003Z,72.41
2023-05-10T09:43:21.016Z,70.89
2023-05-10T09:44:20.969Z,70.79
2023-05-10T09:45:20.962Z,70.62
2023-05-10T09:46:21.024Z,70.86
2023-05-10T09:47:20.936Z,71.37
2023-05-10T09:48:20.937Z,71.26
2023-05-10T09:49:20.943Z,71.57
2023-05-10T09:50:20.981Z,71.84
2023-05-10T09:51:20.926Z,71.84
2023-05-10T09:52:20.888Z,71.87
2023-05-10T09:53:20.905Z,71.00
2023-05-10T09:54:20.898Z,71.40
2023-05-10T09:55:20.890Z,71.23
2023-05-10T09:56:20.863Z,71.23
2023-05-10T09:57:20.850Z,72.44
2023-05-10T09:58:20.842Z,72.95
2023-05-10T09:59:20.824Z,73.05
2023-05-10T10:00:20.851Z,73.72
2023-05-10T10:01:20.823Z,73.63
2023-05-10T10:02:20.818Z,72.41
2023-05-10T10:03:20.789Z,72.65
2023-05-10T10:04:20.808Z,73.36
2023-05-10T10:05:20.782Z,72.55
2023-05-10T10:06:29.434Z,73.72
2023-05-10T10:07:22.823Z,75.45
2023-05-10T10:08:20.736Z,74.10
2023-05-10T10:09:20.761Z,75.17
2023-05-10T10:10:20.730Z,73.05
2023-05-10T10:11:20.714Z,72.51
2023-05-10T10:12:20.696Z,70.12
2023-05-10T10:13:20.681Z,71.26
2023-05-10T10:14:20.692Z,71.77
2023-05-10T10:15:20.847Z,71.94
2023-05-10T10:16:20.720Z,71.53
2023-05-10T10:17:20.759Z,67.39
2023-05-10T10:18:20.696Z,68.00
2023-05-10T10:19:20.637Z,69.21
2023-05-10T10:20:20.867Z,69.68
2023-05-10T10:21:20.609Z,68.10
2023-05-10T10:22:20.597Z,66.58
2023-05-10T10:23:20.625Z,69.11
2023-05-10T10:24:20.635Z,68.30
2023-05-10T10:25:20.564Z,67.76
2023-05-10T10:26:20.559Z,69.38
2023-05-10T10:27:20.547Z,69.48
2023-05-10T10:28:20.589Z,69.21
2023-05-10T10:29:20.542Z,68.88
2023-05-10T10:30:20.519Z,67.33
2023-05-10T10:31:20.531Z,66.02
2023-05-10T10:32:20.555Z,67.36
2023-05-10T10:33:27.965Z,68.77
2023-05-10T10:34:22.485Z,66.93
2023-05-10T10:35:20.511Z,66.72
2023-05-10T10:36:20.458Z,67.80
2023-05-10T10:37:20.490Z,66.66
2023-05-10T10:38:20.458Z,66.93
2023-05-10T10:39:20.453Z,63.85
2023-05-10T10:40:20.437Z,63.79
2023-05-10T10:41:20.456Z,63.89
2023-05-10T10:42:20.462Z,66.33
2023-05-10T10:43:20.449Z,63.04
2023-05-10T10:44:20.451Z,61.43
2023-05-10T10:45:20.392Z,64.61
2023-05-10T10:46:20.366Z,63.10
2023-05-10T10:47:20.442Z,65.35
2023-05-10T10:48:20.405Z,63.93
2023-05-10T10:49:20.445Z,66.22
2023-05-10T10:50:20.411Z,65.16
2023-05-10T10:51:20.338Z,63.24
2023-05-10T10:52:20.333Z,63.31
2023-05-10T10:53:20.367Z,64.69
2023-05-10T10:54:20.296Z,61.34
2023-05-10T10:55:20.445Z,60.00
2023-05-10T10:56:20.263Z,59.58
2023-05-10T10:57:20.280Z,60.35
2023-05-10T10:58:20.243Z,60.72
2023-05-10T10:59:20.232Z,60.45
2023-05-10T11:00:20.254Z,58.04
2023-05-10T11:01:20.294Z,59.58
2023-05-10T11:02:20.209Z,59.98
2023-05-10T11:03:20.197Z,58.09
2023-05-10T11:04:20.214Z,59.53
2023-05-10T11:05:41.271Z,58.20
2023-05-10T11:06:20.164Z,59.10
2023-05-10T11:07:20.161Z,59.50
2023-05-10T11:08:20.154Z,60.91
2023-05-10T11:09:20.138Z,61.07
2023-05-10T11:10:20.159Z,62.98
2023-05-10T11:11:20.126Z,62.58
2023-05-10T11:12:20.092Z,59.48
2023-05-10T11:13:20.097Z,58.68
2023-05-10T11:14:20.101Z,59.06
2023-05-10T11:15:20.109Z,60.33
2023-05-10T11:16:20.141Z,61.51
2023-05-10T11:17:20.050Z,61.11
2023-05-10T11:18:20.090Z,61.41
2023-05-10T11:19:20.072Z,62.49
2023-05-10T11:20:20.336Z,60.68
2023-05-10T11:21:19.999Z,60.15
2023-05-10T11:22:21.007Z,58.64
2023-05-10T11:23:19.995Z,58.62
2023-05-10T11:24:19.997Z,58.31
2023-05-10T11:25:19.979Z,58.29
2023-05-10T11:26:19.972Z,58.49
2023-05-10T11:27:19.970Z,58.99
2023-05-10T11:28:19.957Z,58.18
2023-05-10T11:29:19.944Z,57.96
2023-05-10T11:30:20.151Z,59.46
2023-05-10T11:31:20.049Z,59.56
2023-05-10T11:32:19.908Z,60.36
2023-05-10T11:33:19.897Z,60.77
2023-05-10T11:34:19.881Z,60.57
2023-05-10T11:35:19.877Z,60.77
2023-05-10T11:36:19.890Z,60.86
2023-05-10T11:37:19.863Z,60.97
2023-05-10T11:38:19.846Z,61.17
2023-05-10T11:39:19.841Z,60.74
2023-05-10T11:40:19.995Z,60.77
2023-05-10T11:41:19.849Z,60.44
2023-05-10T11:42:19.809Z,59.89
2023-05-10T11:43:19.805Z,60.80
2023-05-10T11:44:19.789Z,61.00
2023-05-10T11:45:19.805Z,61.57
2023-05-10T11:46:19.811Z,62.47
2023-05-10T11:47:19.767Z,63.47
2023-05-10T11:48:19.754Z,62.17
2023-05-10T11:49:19.742Z,62.47
2023-05-10T11:50:19.978Z,62.47
2023-05-10T11:51:19.720Z,63.47
2023-05-10T11:52:19.811Z,62.64
2023-05-10T11:53:19.721Z,62.44
2023-05-10T11:54:19.688Z,63.45
2023-05-10T11:55:19.718Z,63.14
2023-05-10T11:56:19.674Z,60.74
2023-05-10T11:57:19.665Z,61.34
2023-05-10T11:58:19.644Z,62.41
2023-05-10T11:59:19.675Z,62.41
2023-05-10T12:00:20.011Z,62.84
2023-05-10T12:01:19.635Z,63.04
2023-05-10T12:02:19.668Z,64.95
2023-05-10T12:03:19.700Z,66.08
2023-05-10T12:04:19.722Z,65.58
2023-05-10T12:05:19.607Z,65.85
2023-05-10T12:06:19.623Z,65.65
2023-05-10T12:07:19.571Z,66.02
2023-05-10T12:08:19.547Z,66.12
2023-05-10T12:09:31.541Z,64.62
2023-05-10T12:10:21.577Z,65.92
2023-05-10T12:11:19.525Z,64.48
2023-05-10T12:12:20.514Z,64.81
2023-05-10T12:13:19.497Z,65.31
2023-05-10T12:14:19.485Z,65.59
2023-05-10T12:15:19.502Z,65.52
2023-05-10T12:16:19.515Z,64.31
2023-05-10T12:17:19.467Z,65.92
2023-05-10T12:18:19.533Z,65.85
2023-05-10T12:19:19.444Z,65.28
2023-05-10T12:20:19.696Z,66.11
2023-05-10T12:21:19.421Z,66.05
2023-05-10T12:22:19.417Z,66.08
2023-05-10T12:23:19.416Z,66.28
2023-05-10T12:24:19.413Z,66.64
2023-05-10T12:25:19.405Z,67.68
2023-05-10T12:26:19.384Z,69.02
2023-05-10T12:27:19.359Z,69.35
2023-05-10T12:28:19.355Z,71.00
2023-05-10T12:29:19.378Z,71.91
2023-05-10T12:30:19.338Z,72.61
2023-05-10T12:31:19.346Z,72.94
2023-05-10T12:32:19.327Z,74.26
2023-05-10T12:33:19.310Z,74.59
2023-05-10T12:34:19.310Z,75.57
2023-05-10T12:35:19.319Z,76.58
2023-05-10T12:36:19.293Z,77.19
2023-05-10T12:37:19.289Z,77.89
2023-05-10T12:38:19.278Z,77.99
2023-05-10T12:39:19.253Z,79.74
2023-05-10T12:40:19.413Z,80.08
2023-05-10T12:41:19.300Z,80.69
2023-05-10T12:42:19.256Z,80.79
2023-05-10T12:43:19.317Z,80.99
2023-05-10T12:44:19.205Z,80.79
2023-05-10T12:45:19.191Z,81.23
2023-05-10T12:46:19.213Z,81.34
2023-05-10T12:47:19.166Z,81.54
2023-05-10T12:48:19.181Z,82.59
2023-05-10T12:49:19.157Z,82.65
2023-05-10T12:50:19.250Z,82.95
2023-05-10T12:51:19.130Z,82.65
2023-05-10T12:52:19.137Z,82.81